Time;durP1;ratioP1;P1;durP2;ratioP2;P2;SDS_P1;SDS_P2;PMS_P1;PMS_P2;Temp;Humidity;BMP_temperature;BMP_pressure;BME280_temperature;BME280_humidity;BME280_pressure;Samples;Min_cycle;Max_cycle;Signal;HPM_P1;HPM_P2
2023/01/20 00:01:51;;;;;;;60.00;37.00;;;;;;;0.50;82.11;96440.68;108904;1251;96160;-76
2023/01/20 00:04:20;;;;;;;59.20;35.10;;;;;;;0.52;82.15;96428.92;108948;1251;103209;-76
2023/01/20 00:06:48;;;;;;;59.30;35.20;;;;;;;0.53;82.13;96426.27;108908;1251;101332;-74
2023/01/20 00:09:17;;;;;;;52.90;34.00;;;;;;;0.54;82.09;96429.67;108874;1251;99635;-74
2023/01/20 00:11:46;;;;;;;57.60;35.50;;;;;;;0.55;82.11;96427.79;108882;1251;95554;-75
2023/01/20 00:14:14;;;;;;;55.70;33.60;;;;;;;0.57;82.07;96426.60;108880;1251;96042;-75
2023/01/20 00:16:42;;;;;;;51.60;32.50;;;;;;;0.57;82.09;96437.17;108879;1251;103455;-74
2023/01/20 00:19:14;;;;;;;55.60;32.20;;;;;;;0.57;81.99;96430.84;108737;1252;101088;-74
2023/01/20 00:21:42;;;;;;;50.80;30.60;;;;;;;0.57;82.00;96418.79;108802;1251;99894;-74
2023/01/20 00:24:11;;;;;;;53.30;32.50;;;;;;;0.53;81.88;96414.98;108885;1251;95556;-73
2023/01/20 00:26:39;;;;;;;48.10;31.30;;;;;;;0.50;81.92;96407.18;108884;1251;96001;-74
2023/01/20 00:29:08;;;;;;;51.00;31.10;;;;;;;0.51;81.93;96405.49;108854;1251;103505;-77
2023/01/20 00:31:36;;;;;;;49.70;30.00;;;;;;;0.50;81.83;96412.42;108877;1251;101015;-74
2023/01/20 00:34:04;;;;;;;49.50;30.00;;;;;;;0.48;81.78;96422.28;108806;1251;99970;-76
2023/01/20 00:36:33;;;;;;;49.90;32.10;;;;;;;0.47;81.98;96425.98;108756;1251;95533;-77
2023/01/20 00:39:02;;;;;;;50.80;32.90;;;;;;;0.45;81.89;96435.41;108934;1251;96037;-75
2023/01/20 00:41:31;;;;;;;53.20;32.60;;;;;;;0.44;81.89;96440.08;108868;1251;103227;-74
2023/01/20 00:43:59;;;;;;;54.50;32.10;;;;;;;0.45;81.90;96441.34;108669;1255;101300;-77
2023/01/20 00:46:27;;;;;;;48.00;30.70;;;;;;;0.46;81.85;96438.75;108395;1257;200711;-74
2023/01/20 00:48:55;;;;;;;53.30;31.30;;;;;;;0.47;81.88;96447.71;108567;1255;95738;-74
2023/01/20 00:51:24;;;;;;;51.70;31.10;;;;;;;0.48;81.97;96449.92;108590;1257;95620;-74
2023/01/20 00:53:52;;;;;;;53.70;32.80;;;;;;;0.48;81.95;96450.42;108596;1256;103379;-74
2023/01/20 00:56:20;;;;;;;51.40;32.30;;;;;;;0.48;81.85;96449.04;108578;1257;101234;-74
2023/01/20 00:58:48;;;;;;;50.10;31.10;;;;;;;0.47;81.87;96456.75;108534;1257;99951;-75
2023/01/20 01:01:16;;;;;;;54.30;31.70;;;;;;;0.46;81.83;96461.27;108577;1256;95671;-74
2023/01/20 01:03:44;;;;;;;51.20;31.20;;;;;;;0.45;81.75;96463.31;108600;1257;96032;-75
2023/01/20 01:06:16;;;;;;;50.20;30.10;;;;;;;0.44;81.72;96470.91;108345;1257;103972;-78
2023/01/20 01:08:45;;;;;;;50.20;31.70;;;;;;;0.41;81.64;96470.36;108318;1257;100713;-77
2023/01/20 01:11:14;;;;;;;48.70;29.50;;;;;;;0.37;81.63;96468.11;108580;1255;98996;-75
2023/01/20 01:13:42;;;;;;;46.00;28.50;;;;;;;0.31;81.70;96468.16;108585;1254;95634;-74
2023/01/20 01:16:16;;;;;;;46.50;28.10;;;;;;;0.30;81.67;96467.23;108578;1256;96081;-73
2023/01/20 01:18:44;;;;;;;48.40;28.30;;;;;;;0.28;81.63;96459.17;108600;1255;103509;-73
2023/01/20 01:21:15;;;;;;;45.90;28.10;;;;;;;0.28;81.75;96460.56;108633;1253;101290;-76
2023/01/20 01:23:44;;;;;;;46.90;28.20;;;;;;;0.29;81.74;96460.43;108874;1251;99476;-74
2023/01/20 01:26:12;;;;;;;45.30;27.90;;;;;;;0.32;81.77;96461.60;108904;1251;96023;-75
2023/01/20 01:28:41;;;;;;;46.70;28.80;;;;;;;0.34;81.78;96459.60;108905;1251;96033;-74
2023/01/20 01:31:10;;;;;;;43.40;26.50;;;;;;;0.34;81.75;96452.44;108663;1251;103577;-74
2023/01/20 01:33:38;;;;;;;47.20;27.50;;;;;;;0.36;81.79;96451.19;108867;1251;101164;-74
2023/01/20 01:36:10;;;;;;;42.70;26.60;;;;;;;0.38;81.71;96454.15;108870;1251;99466;-76
2023/01/20 01:38:39;;;;;;;43.80;27.10;;;;;;;0.39;81.80;96451.46;108851;1251;95585;-74
2023/01/20 01:41:07;;;;;;;41.80;26.10;;;;;;;0.39;81.63;96452.17;108887;1251;96038;-74
2023/01/20 01:43:37;;;;;;;44.90;26.00;;;;;;;0.39;81.62;96456.68;108656;1253;103382;-74
2023/01/20 01:46:06;;;;;;;41.80;25.80;;;;;;;0.40;81.58;96462.48;108873;1251;109880;-73
2023/01/20 01:48:40;;;;;;;44.20;25.90;;;;;;;0.40;81.39;96466.94;108884;1251;99622;-76
2023/01/20 01:51:15;;;;;;;43.60;26.00;;;;;;;0.39;81.53;96466.96;108913;1251;95549;-75
2023/01/20 01:53:47;;;;;;;44.00;25.90;;;;;;;0.38;81.61;96469.73;108867;1251;96016;-74
2023/01/20 01:56:16;;;;;;;46.20;26.50;;;;;;;0.32;81.41;96476.93;108669;1254;113494;-74
2023/01/20 01:58:48;;;;;;;45.20;26.50;;;;;;;0.29;81.40;96480.67;108468;1250;101760;-74
2023/01/20 02:01:17;;;;;;;;;;;;;;;0.29;81.55;96483.66;108845;1251;100596;-73
2023/01/20 02:03:50;;;;;;;42.80;26.90;;;;;;;0.28;81.59;96488.57;108850;1251;95803;-74
2023/01/20 02:06:19;;;;;;;45.10;27.10;;;;;;;0.28;81.58;96488.88;108896;1251;96487;-73
2023/01/20 02:08:48;;;;;;;44.90;26.90;;;;;;;0.29;81.69;96496.44;108841;1251;103770;-77
2023/01/20 02:11:17;;;;;;;50.00;28.60;;;;;;;0.27;81.48;96491.95;108782;1251;101484;-73
2023/01/20 02:13:45;;;;;;;49.70;30.60;;;;;;;0.26;81.52;96490.56;108825;1251;99854;-74
2023/01/20 02:16:43;;;;;;;54.10;31.80;;;;;;;0.26;81.59;96489.27;108856;1251;95576;-74
2023/01/20 02:19:23;;;;;;;50.00;29.10;;;;;;;0.27;81.56;96484.56;108878;1251;96384;-76
2023/01/20 02:22:03;;;;;;;46.80;27.60;;;;;;;0.26;81.61;96486.65;108895;1251;103506;-74
2023/01/20 02:24:55;;;;;;;46.20;29.10;;;;;;;0.26;81.55;96490.57;108899;1251;100520;-74
2023/01/20 02:27:42;;;;;;;48.80;29.80;;;;;;;0.27;81.59;96490.29;108861;1251;100108;-75
2023/01/20 02:30:32;;;;;;;52.90;30.20;;;;;;;0.24;81.60;96494.29;108858;1251;95596;-74
2023/01/20 02:33:10;;;;;;;51.30;31.70;;;;;;;0.15;81.57;96492.80;108577;1251;96046;-75
2023/01/20 02:35:54;;;;;;;52.50;31.80;;;;;;;0.13;81.69;96495.23;108882;1251;103051;-74
2023/01/20 02:38:40;;;;;;;50.20;31.40;;;;;;;0.14;81.76;96490.09;108805;1251;101413;-74
2023/01/20 02:41:18;;;;;;;50.40;29.50;;;;;;;0.16;81.84;96486.15;108851;1251;99894;-76
2023/01/20 02:43:59;;;;;;;50.00;29.20;;;;;;;0.19;81.92;96489.55;108833;1251;95560;-74
2023/01/20 02:46:42;;;;;;;49.20;28.50;;;;;;;0.19;81.73;96491.67;108891;1251;95895;-74
2023/01/20 02:49:16;;;;;;;49.60;28.70;;;;;;;0.19;81.73;96493.23;108874;1251;103488;-73
2023/01/20 02:51:57;;;;;;;49.10;27.70;;;;;;;0.16;81.66;96496.20;108876;1251;101085;-73
2023/01/20 02:54:28;;;;;;;41.50;26.10;;;;;;;0.13;81.57;96498.31;108821;1251;99515;-74
2023/01/20 02:57:00;;;;;;;44.30;26.80;;;;;;;0.12;81.61;96499.14;108919;1251;95842;-74
2023/01/20 02:59:34;;;;;;;49.30;27.80;;;;;;;0.11;81.62;96502.78;108929;1251;95621;-74
2023/01/20 03:02:11;;;;;;;46.80;27.10;;;;;;;0.09;81.61;96506.44;108608;1250;102715;-75
2023/01/20 03:04:47;;;;;;;47.50;27.80;;;;;;;0.07;81.69;96502.95;108923;1251;101752;-74
2023/01/20 03:07:17;;;;;;;49.90;29.60;;;;;;;0.08;81.84;96500.17;108872;1251;99869;-75
2023/01/20 03:09:49;;;;;;;48.90;29.20;;;;;;;0.09;81.83;96497.58;108919;1251;95545;-76
2023/01/20 03:12:33;;;;;;;49.10;29.90;;;;;;;0.09;81.76;96500.08;108844;1251;96008;-76
2023/01/20 03:15:01;;;;;;;53.40;30.80;;;;;;;0.08;81.63;96502.13;108941;1251;102700;-75
2023/01/20 03:17:30;;;;;;;56.20;31.20;;;;;;;0.08;81.66;96497.91;108926;1250;100456;-76
2023/01/20 03:19:58;;;;;;;50.30;28.00;;;;;;;0.10;81.74;96494.86;108710;1251;99262;-74
2023/01/20 03:22:26;;;;;;;48.70;27.40;;;;;;;0.10;81.78;96495.70;108848;1251;95599;-74
2023/01/20 03:24:56;;;;;;;47.90;28.40;;;;;;;0.08;81.79;96494.86;108909;1251;96889;-77
2023/01/20 03:27:25;;;;;;;47.20;27.20;;;;;;;0.07;81.66;96495.48;108868;1251;103776;-74
2023/01/20 03:29:53;;;;;;;46.80;26.30;;;;;;;0.05;81.76;96495.23;108587;1251;100589;-74
2023/01/20 03:32:25;;;;;;;50.20;30.00;;;;;;;0.05;81.80;96495.40;108854;1251;100079;-76
2023/01/20 03:34:54;;;;;;;;;;;;;;;0.06;81.74;96496.02;108887;1251;95993;-74
2023/01/20 03:37:23;;;;;;;46.90;27.90;;;;;;;0.05;81.79;96491.11;108920;1251;96030;-76
2023/01/20 03:39:52;;;;;;;54.80;29.20;;;;;;;0.05;81.81;96490.61;108889;1250;103475;-74
2023/01/20 03:42:35;;;;;;;53.00;30.70;;;;;;;0.03;81.82;96487.77;108678;1251;101251;-73
2023/01/20 03:45:10;;;;;;;50.80;30.60;;;;;;;0.03;81.91;96496.67;108828;1251;99986;-72
2023/01/20 03:47:50;;;;;;;48.00;30.10;;;;;;;0.03;81.90;96502.15;108952;1251;95612;-74
2023/01/20 03:50:27;;;;;;;56.70;31.70;;;;;;;0.03;81.90;96504.96;108885;1251;96016;-74
2023/01/20 03:53:02;;;;;;;55.20;32.50;;;;;;;0.04;81.95;96511.07;108896;1251;103649;-73
2023/01/20 03:55:39;;;;;;;50.50;30.90;;;;;;;0.06;81.86;96511.38;108932;1251;101069;-76
2023/01/20 03:58:19;;;;;;;53.10;28.60;;;;;;;0.08;81.80;96513.14;108833;1251;99864;-76
2023/01/20 04:00:50;;;;;;;51.10;31.00;;;;;;;0.09;81.89;96511.25;108853;1251;95575;-74
2023/01/20 04:03:22;;;;;;;54.80;32.30;;;;;;;0.12;81.90;96512.98;108907;1251;97127;-75
2023/01/20 04:05:52;;;;;;;51.90;30.70;;;;;;;0.16;81.97;96515.60;108951;1251;103603;-75
2023/01/20 04:08:24;;;;;;;50.20;29.10;;;;;;;0.14;81.79;96513.98;108817;1250;101399;-75
2023/01/20 04:10:55;;;;;;;48.60;27.80;;;;;;;0.09;81.72;96519.84;108816;1251;98978;-75
2023/01/20 04:13:23;;;;;;;46.80;27.70;;;;;;;0.05;81.79;96520.66;108872;1251;95565;-74
2023/01/20 04:15:52;;;;;;;50.00;29.60;;;;;;;0.02;81.72;96525.20;108879;1251;96027;-74
2023/01/20 04:18:22;;;;;;;52.80;29.20;;;;;;;0.02;81.77;96530.17;108910;1251;103229;-75
2023/01/20 04:21:03;;;;;;;48.80;28.20;;;;;;;0.02;81.92;96533.33;108929;1250;102006;-74
2023/01/20 04:23:31;;;;;;;53.70;29.90;;;;;;;0.05;81.93;96538.05;108542;1253;101404;-74
2023/01/20 04:25:59;;;;;;;48.80;27.90;;;;;;;0.06;81.89;96534.66;108864;1251;95561;-73
2023/01/20 04:28:28;;;;;;;51.10;28.80;;;;;;;0.06;81.83;96543.55;108890;1251;96032;-73
2023/01/20 04:30:57;;;;;;;44.20;25.10;;;;;;;0.04;81.84;96549.45;108894;1251;103626;-75
2023/01/20 04:33:25;;;;;;;46.10;24.90;;;;;;;0.03;81.73;96552.91;108856;1251;101461;-74
2023/01/20 04:35:53;;;;;;;47.50;24.50;;;;;;;0.07;81.64;96554.09;108636;1251;100067;-74
2023/01/20 04:38:21;;;;;;;42.60;21.70;;;;;;;0.09;81.46;96558.28;108906;1251;95562;-74
2023/01/20 04:40:49;;;;;;;49.00;28.00;;;;;;;0.08;81.38;96565.15;108565;1251;96108;-74
2023/01/20 04:43:17;;;;;;;48.00;27.70;;;;;;;0.07;81.48;96571.08;108687;1252;102665;-74
2023/01/20 04:45:45;;;;;;;51.80;28.80;;;;;;;0.08;81.55;96575.53;108874;1251;101229;-74
2023/01/20 04:48:13;;;;;;;48.40;27.00;;;;;;;0.10;81.56;96576.69;108914;1251;99452;-74
2023/01/20 04:50:42;;;;;;;45.40;25.80;;;;;;;0.11;81.61;96575.06;108876;1251;95637;-74
2023/01/20 04:53:17;;;;;;;47.70;27.00;;;;;;;0.06;81.43;96578.93;108880;1251;96015;-76
2023/01/20 04:55:46;;;;;;;51.30;27.00;;;;;;;0.06;81.65;96580.53;108911;1251;103387;-74
2023/01/20 04:58:14;;;;;;;50.60;25.20;;;;;;;0.08;81.65;96578.19;108873;1251;101769;-74
2023/01/20 05:00:42;;;;;;;49.30;25.20;;;;;;;0.07;81.69;96573.11;108917;1251;100095;-74
2023/01/20 05:03:10;;;;;;;52.70;27.20;;;;;;;0.05;81.48;96571.91;108464;1251;95564;-73
2023/01/20 05:05:39;;;;;;;46.00;24.60;;;;;;;0.05;81.66;96570.71;108902;1251;96099;-74
2023/01/20 05:08:07;;;;;;;46.10;25.70;;;;;;;0.05;81.63;96575.13;108960;1250;103562;-74
2023/01/20 05:10:35;;;;;;;46.30;24.40;;;;;;;0.04;81.65;96575.48;108868;1252;101239;-73
2023/01/20 05:13:03;;;;;;;48.90;25.80;;;;;;;0.02;81.78;96577.41;108827;1251;99632;-75
2023/01/20 05:15:31;;;;;;;47.10;27.10;;;;;;;0.01;81.83;96578.37;108522;1251;96156;-73
2023/01/20 05:17:59;;;;;;;53.60;27.30;;;;;;;0.01;81.65;96578.07;108888;1251;96042;-77
2023/01/20 05:20:28;;;;;;;60.80;29.80;;;;;;;-0.02;81.64;96580.55;108889;1251;103957;-72
2023/01/20 05:22:57;;;;;;;59.60;28.90;;;;;;;-0.03;81.77;96584.66;108595;1251;101249;-72
2023/01/20 05:25:25;;;;;;;53.80;28.00;;;;;;;-0.03;81.86;96588.90;108893;1251;100043;-74
2023/01/20 05:27:53;;;;;;;64.70;31.00;;;;;;;-0.02;81.81;96590.79;108897;1251;95562;-75
2023/01/20 05:30:21;;;;;;;49.00;27.40;;;;;;;-0.04;81.86;96594.87;108582;1251;96095;-74
2023/01/20 05:32:50;;;;;;;48.80;26.60;;;;;;;-0.03;81.85;96596.39;108849;1251;103132;-73
2023/01/20 05:35:18;;;;;;;52.70;29.10;;;;;;;-0.00;82.08;96598.34;108624;1252;101550;-74
2023/01/20 05:37:47;;;;;;;50.60;28.70;;;;;;;-0.01;82.00;96598.77;108775;1252;99924;-75
2023/01/20 05:40:15;;;;;;;55.10;29.30;;;;;;;-0.00;82.02;96599.95;108753;1252;95564;-74
2023/01/20 05:42:43;;;;;;;54.30;30.70;;;;;;;0.01;82.01;96603.88;108819;1252;96012;-74
2023/01/20 05:45:12;;;;;;;50.60;28.70;;;;;;;0.01;81.99;96606.13;108808;1253;103473;-74
2023/01/20 05:47:40;;;;;;;52.80;30.70;;;;;;;-0.00;81.93;96605.79;108748;1252;101389;-74
2023/01/20 05:50:08;;;;;;;60.10;33.90;;;;;;;-0.01;82.02;96601.80;108794;1252;99875;-73
2023/01/20 05:52:36;;;;;;;67.90;34.50;;;;;;;-0.00;81.99;96602.42;108610;1252;95683;-73
2023/01/20 05:55:05;;;;;;;68.50;34.40;;;;;;;0.01;82.04;96604.81;108797;1252;95688;-74
2023/01/20 05:57:33;;;;;;;64.40;34.00;;;;;;;0.01;81.98;96603.51;108778;1251;111907;-74
2023/01/20 06:00:01;;;;;;;68.70;36.50;;;;;;;0.01;81.94;96604.73;108641;1251;100355;-74
2023/01/20 06:02:31;;;;;;;75.20;38.90;;;;;;;0.01;81.97;96603.88;108758;1251;99695;-73
2023/01/20 06:05:00;;;;;;;73.30;38.10;;;;;;;0.03;81.98;96607.95;108763;1252;95623;-75
2023/01/20 06:07:30;;;;;;;74.60;38.40;;;;;;;0.05;82.17;96607.86;108828;1252;96017;-73
2023/01/20 06:09:58;;;;;;;76.00;38.40;;;;;;;0.06;82.06;96609.76;108798;1252;103603;-73
2023/01/20 06:12:26;;;;;;;76.40;40.00;;;;;;;0.05;81.95;96612.84;108840;1252;101321;-74
2023/01/20 06:14:54;;;;;;;75.60;39.50;;;;;;;0.04;81.93;96613.96;108731;1252;99968;-76
2023/01/20 06:17:22;;;;;;;76.00;39.40;;;;;;;0.03;81.97;96613.45;108678;1252;95920;-76
2023/01/20 06:19:50;;;;;;;78.00;41.00;;;;;;;0.01;81.99;96619.77;108559;1252;96099;-73
2023/01/20 06:22:19;;;;;;;76.70;40.30;;;;;;;0.02;82.04;96621.88;108830;1252;103279;-77
2023/01/20 06:24:48;;;;;;;76.20;39.20;;;;;;;0.03;82.05;96626.00;108844;1251;101707;-74
2023/01/20 06:27:16;;;;;;;73.00;41.10;;;;;;;0.04;82.00;96625.34;108763;1252;99935;-74
2023/01/20 06:29:44;;;;;;;108.30;55.70;;;;;;;0.06;82.11;96621.20;108795;1252;96094;-74
2023/01/20 06:32:12;;;;;;;110.60;55.40;;;;;;;0.11;82.16;96624.38;108808;1252;96088;-74
2023/01/20 06:34:40;;;;;;;103.10;53.80;;;;;;;0.15;82.06;96624.52;108879;1250;103720;-73
2023/01/20 06:37:08;;;;;;;89.10;46.70;;;;;;;0.16;82.05;96627.60;108709;1251;101147;-75
2023/01/20 06:39:37;;;;;;;85.90;45.40;;;;;;;0.13;81.96;96630.52;108898;1251;100001;-75
2023/01/20 06:42:06;;;;;;;84.80;45.00;;;;;;;0.10;81.95;96633.71;108889;1251;95585;-76
2023/01/20 06:44:34;;;;;;;82.90;43.30;;;;;;;0.07;82.05;96640.04;108917;1251;96083;-76
2023/01/20 06:47:03;;;;;;;85.00;44.90;;;;;;;0.05;81.93;96642.95;108895;1251;103494;-73
2023/01/20 06:49:32;;;;;;;85.20;44.30;;;;;;;0.04;82.11;96644.58;108894;1251;101273;-73
2023/01/20 06:52:00;;;;;;;84.00;43.30;;;;;;;0.04;82.10;96643.21;108724;1252;99891;-74
2023/01/20 06:54:28;;;;;;;98.80;51.70;;;;;;;0.03;82.04;96643.41;108812;1251;95617;-74
2023/01/20 06:56:56;;;;;;;97.10;52.20;;;;;;;0.03;81.91;96642.25;108954;1251;95753;-76
2023/01/20 06:59:24;;;;;;;142.10;62.40;;;;;;;0.02;81.99;96642.52;108924;1251;103508;-74
2023/01/20 07:01:53;;;;;;;129.60;56.20;;;;;;;0.03;81.84;96640.48;108627;1252;101338;-74
2023/01/20 07:04:21;;;;;;;58.60;32.20;;;;;;;0.03;81.73;96641.69;108829;1251;99881;-73
2023/01/20 07:06:49;;;;;;;57.30;32.50;;;;;;;-0.00;81.61;96639.95;108888;1251;95566;-73
2023/01/20 07:09:17;;;;;;;61.50;30.70;;;;;;;-0.02;81.54;96642.30;108646;1251;96598;-73
2023/01/20 07:11:45;;;;;;;63.80;31.90;;;;;;;-0.05;81.42;96642.75;108564;1251;103383;-73
2023/01/20 07:14:13;;;;;;;69.60;35.90;;;;;;;-0.08;81.27;96642.58;108913;1250;101364;-76
2023/01/20 07:16:41;;;;;;;58.50;31.70;;;;;;;-0.12;81.09;96645.42;108858;1251;100034;-73
2023/01/20 07:19:09;;;;;;;58.10;30.60;;;;;;;-0.14;81.07;96647.75;108840;1251;95589;-75
2023/01/20 07:21:37;;;;;;;56.50;31.00;;;;;;;-0.14;81.24;96646.73;108968;1251;97041;-74
2023/01/20 07:24:06;;;;;;;52.10;28.20;;;;;;;-0.12;81.32;96646.19;108565;1251;104771;-73
2023/01/20 07:26:35;;;;;;;51.40;26.40;;;;;;;-0.14;81.20;96641.89;108933;1250;101614;-74
2023/01/20 07:29:03;;;;;;;47.00;24.80;;;;;;;-0.15;80.96;96641.05;108784;1251;99798;-76
2023/01/20 07:31:33;;;;;;;45.90;24.60;;;;;;;-0.17;80.97;96643.73;108514;1251;95707;-73
2023/01/20 07:34:01;;;;;;;47.40;24.60;;;;;;;-0.20;80.87;96646.63;108844;1251;96040;-75
2023/01/20 07:36:29;;;;;;;41.10;23.40;;;;;;;-0.23;80.87;96655.84;108836;1251;103550;-72
2023/01/20 07:38:57;;;;;;;46.10;24.20;;;;;;;-0.24;80.86;96665.86;108795;1251;101332;-73
2023/01/20 07:41:25;;;;;;;44.40;23.10;;;;;;;-0.26;80.82;96665.16;108737;1252;98674;-77
2023/01/20 07:43:54;;;;;;;42.30;23.50;;;;;;;-0.31;80.71;96669.95;108769;1251;95560;-73
2023/01/20 07:46:22;;;;;;;45.20;25.00;;;;;;;-0.35;80.72;96673.84;108617;1251;96133;-73
2023/01/20 07:48:51;;;;;;;39.90;22.10;;;;;;;-0.39;80.68;96677.62;108799;1252;103486;-73
2023/01/20 07:51:19;;;;;;;39.10;22.30;;;;;;;-0.41;80.65;96678.35;108790;1253;101351;-75
2023/01/20 07:53:50;;;;;;;40.30;21.60;;;;;;;-0.42;80.62;96680.42;108735;1252;99892;-75
2023/01/20 07:56:21;;;;;;;42.90;22.80;;;;;;;-0.44;80.61;96684.13;108817;1251;95558;-76
2023/01/20 07:58:51;;;;;;;43.80;22.70;;;;;;;-0.44;80.46;96685.05;108473;1253;95746;-74
2023/01/20 08:01:22;;;;;;;48.80;25.80;;;;;;;-0.44;80.55;96688.80;108795;1252;103805;-76
2023/01/20 08:03:50;;;;;;;47.70;25.20;;;;;;;-0.44;80.58;96690.75;108821;1251;99991;-75
2023/01/20 08:06:20;;;;;;;45.00;24.50;;;;;;;-0.46;80.51;96693.01;108788;1252;99758;-76
2023/01/20 08:08:49;;;;;;;46.80;23.40;;;;;;;-0.45;80.48;96694.40;108790;1252;95542;-73
2023/01/20 08:11:19;;;;;;;53.60;27.10;;;;;;;-0.44;80.61;96696.55;108800;1252;96661;-72
2023/01/20 08:13:47;;;;;;;49.50;27.70;;;;;;;-0.43;80.56;96696.96;108795;1252;103054;-76
2023/01/20 08:16:18;;;;;;;46.60;24.40;;;;;;;-0.43;80.66;96701.37;108783;1253;101483;-76
2023/01/20 08:18:46;;;;;;;50.80;26.80;;;;;;;-0.43;80.61;96700.14;108760;1253;100274;-73
2023/01/20 08:21:24;;;;;;;52.70;28.30;;;;;;;-0.40;80.69;96700.39;108764;1252;95737;-72
2023/01/20 08:23:55;;;;;;;46.80;26.00;;;;;;;-0.35;80.71;96712.23;108787;1252;96408;-73
2023/01/20 08:26:24;;;;;;;48.50;25.10;;;;;;;-0.30;80.76;96717.58;108827;1252;103337;-73
2023/01/20 08:28:53;;;;;;;54.60;27.60;;;;;;;-0.28;80.63;96718.40;108794;1252;101413;-73
2023/01/20 08:31:22;;;;;;;46.90;26.20;;;;;;;-0.25;80.73;96717.45;108803;1252;99874;-74
2023/01/20 08:33:56;;;;;;;43.80;24.80;;;;;;;-0.25;80.66;96720.04;108475;1252;95694;-73
2023/01/20 08:36:27;;;;;;;51.00;27.80;;;;;;;-0.23;80.60;96720.92;108825;1252;96092;-74
2023/01/20 08:38:58;;;;;;;48.10;26.50;;;;;;;-0.21;80.61;96722.55;108751;1251;103846;-75
2023/01/20 08:41:30;;;;;;;47.90;24.70;;;;;;;-0.20;80.50;96723.05;108917;1251;100402;-75
2023/01/20 08:44:00;;;;;;;49.60;24.10;;;;;;;-0.24;80.44;96722.42;108854;1251;99931;-76
2023/01/20 08:46:28;;;;;;;48.50;25.30;;;;;;;-0.25;80.43;96719.71;108816;1251;95593;-74
2023/01/20 08:48:57;;;;;;;48.70;25.90;;;;;;;-0.24;80.49;96720.65;108660;1251;96069;-73
2023/01/20 08:51:31;;;;;;;51.70;27.70;;;;;;;-0.22;80.47;96717.77;108904;1251;103576;-74
2023/01/20 08:54:00;;;;;;;50.60;28.00;;;;;;;-0.21;80.56;96719.46;108949;1251;100457;-74
2023/01/20 08:56:29;;;;;;;44.10;24.90;;;;;;;-0.19;80.54;96719.61;108844;1251;99866;-73
2023/01/20 08:58:58;;;;;;;53.40;29.10;;;;;;;-0.16;80.64;96718.73;108797;1251;95828;-73
2023/01/20 09:01:29;;;;;;;49.10;26.60;;;;;;;-0.13;80.61;96722.70;108575;1251;96108;-74
2023/01/20 09:03:58;;;;;;;50.30;26.80;;;;;;;-0.12;80.55;96733.49;108973;1251;103491;-73
2023/01/20 09:06:26;;;;;;;54.20;28.50;;;;;;;-0.11;80.56;96741.55;108919;1250;101271;-75
2023/01/20 09:08:54;;;;;;;46.10;24.70;;;;;;;-0.11;80.56;96739.60;108741;1253;100215;-74
2023/01/20 09:11:25;;;;;;;52.10;27.00;;;;;;;-0.11;80.50;96740.46;108770;1252;95639;-74
2023/01/20 09:13:54;;;;;;;59.00;29.70;;;;;;;-0.08;80.52;96741.77;108816;1251;96075;-74
2023/01/20 09:16:22;;;;;;;48.20;26.60;;;;;;;-0.08;80.48;96742.45;108810;1252;103697;-74
2023/01/20 09:18:51;;;;;;;53.10;28.40;;;;;;;-0.08;80.56;96743.98;108517;1251;101321;-73
2023/01/20 09:21:19;;;;;;;52.30;26.50;;;;;;;-0.07;80.60;96739.91;108765;1252;100058;-73
2023/01/20 09:23:47;;;;;;;51.50;26.60;;;;;;;-0.09;80.59;96739.00;108807;1252;95653;-75
2023/01/20 09:26:16;;;;;;;50.80;26.50;;;;;;;-0.09;80.67;96739.56;108729;1251;95656;-74
2023/01/20 09:28:47;;;;;;;55.70;28.20;;;;;;;-0.11;80.65;96738.70;108844;1252;103459;-74
2023/01/20 09:31:15;;;;;;;55.60;28.40;;;;;;;-0.09;80.68;96741.68;108829;1253;101449;-73
2023/01/20 09:33:43;;;;;;;51.30;28.20;;;;;;;-0.09;80.74;96737.84;108773;1252;99626;-74
2023/01/20 09:36:12;;;;;;;58.90;30.80;;;;;;;-0.12;80.81;96738.08;108713;1253;95564;-73
2023/01/20 09:44:35;;;;;;;60.50;30.90;;;;;;;-0.08;81.01;96731.52;108792;1252;101272;-74
2023/01/20 09:47:33;;;;;;;59.00;31.50;;;;;;;-0.07;80.95;96721.70;108602;1252;99248;-75
2023/01/20 09:53:24;;;;;;;61.10;30.90;;;;;;;-0.01;81.17;96712.20;108807;1253;96004;-76
2023/01/20 09:55:59;;;;;;;62.80;32.20;;;;;;;0.04;81.13;96701.96;108727;1253;103270;-73
2023/01/20 09:58:52;;;;;;;61.90;30.80;;;;;;;0.08;81.21;96695.45;108826;1252;101062;-74
2023/01/20 10:01:36;;;;;;;65.40;32.30;;;;;;;0.14;81.19;96693.55;108781;1252;100071;-74
2023/01/20 10:04:32;;;;;;;55.60;28.30;;;;;;;0.19;81.29;96694.95;108750;1253;95579;-77
2023/01/20 10:07:25;;;;;;;55.80;28.80;;;;;;;0.24;81.22;96695.62;108815;1252;96070;-73
2023/01/20 10:09:53;;;;;;;;;;;;;;;0.29;81.02;96697.81;108816;1252;103045;-77
2023/01/20 10:12:39;;;;;;;61.30;32.60;;;;;;;0.28;81.08;96703.15;108880;1251;101308;-77
2023/01/20 10:15:09;;;;;;;56.80;28.00;;;;;;;0.27;81.01;96702.09;108866;1251;97736;-73
2023/01/20 10:17:43;;;;;;;54.80;27.80;;;;;;;0.27;80.92;96703.48;108847;1251;95667;-74
2023/01/20 10:20:21;;;;;;;55.10;28.80;;;;;;;0.31;80.96;96704.10;108848;1251;96038;-74
2023/01/20 10:22:57;;;;;;;51.20;27.10;;;;;;;0.38;81.04;96704.95;108943;1251;103669;-73
2023/01/20 10:25:31;;;;;;;51.00;25.60;;;;;;;0.44;80.96;96705.46;108852;1250;101258;-77
2023/01/20 10:28:09;;;;;;;50.90;26.70;;;;;;;0.42;80.92;96707.74;108849;1251;99450;-73
2023/01/20 10:30:37;;;;;;;49.90;26.20;;;;;;;0.40;80.71;96707.44;108517;1251;95677;-74
2023/01/20 10:33:11;;;;;;;48.00;26.20;;;;;;;0.40;80.71;96704.76;108841;1252;97062;-74
2023/01/20 10:35:44;;;;;;;51.10;26.00;;;;;;;0.41;80.79;96706.75;108524;1256;103530;-73
2023/01/20 10:38:58;;;;;;;52.30;26.50;;;;;;;0.42;80.77;96706.65;108821;1253;101365;-74
2023/01/20 10:41:39;;;;;;;50.10;26.10;;;;;;;0.42;80.75;96706.88;108279;1256;99768;-73
2023/01/20 10:44:13;;;;;;;50.10;26.70;;;;;;;0.43;80.77;96702.84;108338;1256;95705;-74
2023/01/20 10:46:57;;;;;;;57.20;29.30;;;;;;;0.44;80.78;96699.23;108287;1256;96099;-73
2023/01/20 10:49:34;;;;;;;63.00;33.30;;;;;;;0.47;80.94;96691.26;108348;1257;103405;-74
2023/01/20 10:52:44;;;;;;;65.60;34.50;;;;;;;0.53;80.98;96693.48;108325;1256;101398;-73
2023/01/20 10:55:46;;;;;;;60.80;32.60;;;;;;;0.58;80.97;96694.29;108119;1256;101643;-76
2023/01/20 10:58:19;;;;;;;62.70;33.00;;;;;;;0.61;80.80;96688.63;108281;1258;95628;-73
2023/01/20 11:00:48;;;;;;;59.30;30.50;;;;;;;0.58;80.74;96683.52;108271;1258;96209;-72
2023/01/20 11:03:20;;;;;;;60.00;29.30;;;;;;;0.54;80.66;96684.61;108296;1258;103570;-74
2023/01/20 11:05:51;;;;;;;60.40;29.50;;;;;;;0.49;80.52;96690.29;108332;1259;101363;-74
2023/01/20 11:08:26;;;;;;;59.60;31.10;;;;;;;0.45;80.48;96692.02;108273;1258;99574;-77
2023/01/20 11:10:59;;;;;;;65.30;32.10;;;;;;;0.44;80.59;96699.42;108285;1257;95626;-73
2023/01/20 11:13:27;;;;;;;66.10;31.90;;;;;;;0.48;80.63;96698.03;108354;1256;96139;-73
2023/01/20 11:16:04;;;;;;;57.40;28.30;;;;;;;0.55;80.68;96694.48;108338;1256;102575;-74
2023/01/20 11:18:33;;;;;;;63.00;30.60;;;;;;;0.60;80.75;96689.82;108639;1252;101160;-75
2023/01/20 11:21:07;;;;;;;58.70;30.80;;;;;;;0.66;80.84;96683.45;108759;1251;99473;-74
2023/01/20 11:23:36;;;;;;;67.30;32.80;;;;;;;0.73;80.75;96671.45;108840;1251;95833;-73
2023/01/20 11:26:28;;;;;;;62.30;32.00;;;;;;;0.77;80.63;96659.80;108841;1251;96068;-73
2023/01/20 11:28:58;;;;;;;;;;;;;;;0.73;80.41;96660.20;108223;1259;103401;-74
2023/01/20 11:31:54;;;;;;;51.80;25.00;;;;;;;0.68;80.30;96663.77;108223;1259;101421;-74
2023/01/20 11:34:26;;;;;;;45.80;24.10;;;;;;;0.67;80.35;96660.08;108197;1259;100443;-73
2023/01/20 11:37:15;;;;;;;;;;;;;;;0.66;80.46;96648.81;108215;1259;95649;-74
2023/01/20 11:39:51;;;;;;;51.20;25.80;;;;;;;0.65;80.50;96643.23;108195;1259;96374;-74
2023/01/20 11:42:23;;;;;;;49.60;25.60;;;;;;;0.63;80.43;96632.32;108265;1259;103427;-76